Time;durP1;ratioP1;P1;durP2;ratioP2;P2;SDS_P1;SDS_P2;PMS_P1;PMS_P2;Temp;Humidity;BMP_temperature;BMP_pressure;BME280_temperature;BME280_humidity;BME280_pressure;Samples;Min_cycle;Max_cycle;Signal;HPM_P1;HPM_P2
2023/03/15 00:00:13;;;;;;;22.25;16.35;;;;;;;;;;5064981;28;20390;-76
2023/03/15 00:02:40;;;;;;;19.50;13.57;;;;;;;;;;5032673;28;20031;-76
2023/03/15 00:05:06;;;;;;;21.58;13.85;;;;;;;;;;5065720;28;20339;-77
2023/03/15 00:07:32;;;;;;;21.55;14.35;;;;;;;;;;5033839;28;20029;-76
2023/03/15 00:09:58;;;;;;;32.80;16.58;;;;;;;;;;5065486;28;20053;-78
2023/03/15 00:12:24;;;;;;;26.73;16.13;;;;;;;;;;5065524;28;20049;-76
2023/03/15 00:14:51;;;;;;;42.55;20.33;;;;;;;;;;5065608;28;20107;-77
2023/03/15 00:17:17;;;;;;;43.47;20.25;;;;;;;;;;5040228;28;20029;-76
2023/03/15 00:19:43;;;;;;;18.67;9.18;;;;;;;;;;5053299;28;20143;-77
2023/03/15 00:22:09;;;;;;;17.25;10.43;;;;;;;;;;5052440;28;20164;-75
2023/03/15 00:24:35;;;;;;;15.65;8.45;;;;;;;;;;5053458;28;20025;-76
2023/03/15 00:27:01;;;;;;;12.10;7.57;;;;;;;;;;5050977;28;20147;-76
2023/03/15 00:29:27;;;;;;;13.40;7.50;;;;;;;;;;5031429;28;20152;-77
2023/03/15 00:31:53;;;;;;;13.55;6.93;;;;;;;;;;5030691;28;20040;-75
2023/03/15 00:34:23;;;;;;;17.52;10.15;;;;;;;;;;5031799;28;20025;-76
2023/03/15 00:36:52;;;;;;;13.45;6.43;;;;;;;;;;5064499;28;20384;-76
2023/03/15 00:39:18;;;;;;;26.20;13.32;;;;;;;;;;5051989;28;20028;-77
2023/03/15 00:41:44;;;;;;;14.95;9.07;;;;;;;;;;5052120;28;20476;-78
2023/03/15 00:44:11;;;;;;;15.95;8.93;;;;;;;;;;5052145;28;20028;-77
2023/03/15 00:46:37;;;;;;;21.15;9.68;;;;;;;;;;5052064;28;20125;-79
2023/03/15 00:49:03;;;;;;;15.45;6.75;;;;;;;;;;5052306;28;20044;-78
2023/03/15 00:51:29;;;;;;;9.45;5.13;;;;;;;;;;5052137;28;20025;-78
2023/03/15 00:53:55;;;;;;;12.75;7.80;;;;;;;;;;5053524;28;20453;-78
2023/03/15 00:56:24;;;;;;;15.20;7.65;;;333.30;1920.00;;;;;;5052170;28;20031;-77
2023/03/15 00:58:51;;;;;;;12.45;6.10;;;333.20;1920.00;;;;;;5051785;28;20112;-77
2023/03/15 01:01:23;;;;;;;8.05;5.30;;;333.20;1945.60;;;;;;5052088;28;20025;-79
2023/03/15 01:03:49;;;;;;;16.00;7.93;;;333.10;1920.00;;;;;;5051952;28;20037;-77
2023/03/15 01:06:19;;;;;;;12.25;5.80;;;333.10;1945.60;;;;;;5051836;28;20033;-79
2023/03/15 01:08:45;;;;;;;12.18;7.35;;;333.00;1945.60;;;;;;5053448;28;20032;-76
2023/03/15 01:11:14;;;;;;;14.20;6.80;;;333.10;1945.60;;;;;;5052985;28;20028;-79
2023/03/15 01:13:40;;;;;;;11.13;6.50;;;333.10;1945.60;;;;;;5051740;28;20461;-77
2023/03/15 01:16:07;;;;;;;15.68;7.00;;;333.10;1945.60;;;;;;5051869;28;20025;-78
2023/03/15 01:18:33;;;;;;;10.85;5.63;;;333.00;1945.60;;;;;;5051879;28;20120;-78
2023/03/15 01:20:59;;;;;;;8.63;4.65;;;332.90;1945.60;;;;;;5051500;28;20052;-76
2023/03/15 01:23:25;;;;;;;7.45;4.95;;;332.90;1971.20;;;;;;5051883;28;20119;-77
2023/03/15 01:25:51;;;;;;;8.45;4.55;;;332.90;1971.20;;;;;;5051898;28;20029;-78
2023/03/15 01:28:17;;;;;;;9.05;4.72;;;332.90;1971.20;;;;;;5051768;28;20443;-78
2023/03/15 01:30:50;;;;;;;11.13;5.50;;;332.90;1996.80;;;;;;5051690;28;20431;-78
2023/03/15 01:33:16;;;;;;;12.25;6.75;;;332.90;1996.80;;;;;;5051518;28;20063;-77
2023/03/15 01:35:42;;;;;;;17.35;9.45;;;332.80;1996.80;;;;;;5051748;28;20066;-78
2023/03/15 01:38:07;;;;;;;13.05;8.40;;;332.80;2022.40;;;;;;5051736;28;20057;-76
2023/03/15 01:40:33;;;;;;;11.57;6.63;;;308.10;1996.80;;;;;;5052801;28;20025;-78
2023/03/15 01:43:05;;;;;;;8.38;5.68;;;308.10;1996.80;;;;;;5054419;28;20032;-78
2023/03/15 01:46:01;;;;;;;8.10;5.57;;;308.00;1996.80;;;;;;5055355;28;20061;-76
2023/03/15 01:49:01;;;;;;;11.60;6.53;;;308.10;1996.80;;;;;;5055220;28;20174;-76
2023/03/15 01:51:52;;;;;;;9.52;6.60;;;308.10;1996.80;;;;;;5055117;28;20450;-77
2023/03/15 01:54:40;;;;;;;10.07;5.65;;;308.00;1996.80;;;;;;5055011;28;20033;-78
2023/03/15 01:57:11;;;;;;;15.07;7.30;;;308.00;2022.40;;;;;;5055222;28;20112;-79
2023/03/15 01:59:50;;;;;;;15.43;8.15;;;308.00;2022.40;;;;;;5055026;28;20021;-77
2023/03/15 02:02:15;;;;;;;13.05;8.65;;;308.00;2048.00;;;;;;5054903;28;20461;-77
2023/03/15 02:05:08;;;;;;;11.45;7.93;;;307.80;2048.00;;;;;;5056209;28;20036;-77
2023/03/15 02:07:35;;;;;;;12.68;7.80;;;307.90;2048.00;;;;;;5055059;28;20358;-78
2023/03/15 02:10:06;;;;;;;14.98;8.02;;;307.80;2048.00;;;;;;5055467;28;20124;-78
2023/03/15 02:12:37;;;;;;;14.00;8.13;;;307.80;2048.00;;;;;;5054665;28;20029;-81
2023/03/15 02:15:05;;;;;;;11.13;7.25;;;307.70;2073.60;;;;;;5055908;28;20107;-78
2023/03/15 02:17:37;;;;;;;13.32;8.13;;;307.70;2073.60;;;;;;5055075;28;20032;-77
2023/03/15 02:20:09;;;;;;;11.98;7.78;;;307.50;2099.20;;;;;;5054627;28;20038;-77
2023/03/15 02:22:54;;;;;;;13.00;7.00;;;;;;;;;;5054575;28;20120;-78
2023/03/15 02:25:35;;;;;;;10.20;7.13;;;;;;;;;;5054686;28;20517;-77
2023/03/15 02:28:02;;;;;;;13.50;7.72;;;;;;;;;;5055756;28;20021;-77
2023/03/15 02:30:28;;;;;;;12.73;6.95;;;;;;;;;;5054439;28;20021;-77
2023/03/15 02:32:55;;;;;;;10.95;6.70;;;;;;;;;;5054366;28;20111;-78
2023/03/15 02:35:26;;;;;;;10.38;6.00;;;307.50;2124.80;;;;;;5054576;28;20111;-78
2023/03/15 02:37:52;;;;;;;11.48;6.45;;;307.50;2124.80;;;;;;5054274;28;20380;-79
2023/03/15 02:40:20;;;;;;;10.48;7.20;;;307.30;2124.80;;;;;;5055579;28;20025;-77
2023/03/15 02:42:50;;;;;;;10.82;6.28;;;307.30;2150.40;;;;;;5055802;28;20380;-77
2023/03/15 02:45:16;;;;;;;12.35;7.10;;;307.20;2150.40;;;;;;5054061;28;20369;-80
2023/03/15 02:47:43;;;;;;;12.48;7.18;;;;;;;;;;5055364;28;20100;-81
2023/03/15 02:50:10;;;;;;;20.33;12.18;;;;;;;;;;5047174;28;20022;-76
2023/03/15 02:52:36;;;;;;;22.98;14.05;;;282.00;2176.00;;;;;;5050258;28;20200;-78
2023/03/15 02:55:01;;;;;;;30.73;17.67;;;281.90;2227.20;;;;;;5032366;28;20567;-77
2023/03/15 02:57:28;;;;;;;24.35;14.02;;;281.70;2227.20;;;;;;5034858;28;20096;-77
2023/03/15 02:59:54;;;;;;;32.83;18.05;;;281.70;2252.80;;;;;;5035349;28;20030;-77
2023/03/15 03:02:20;;;;;;;44.85;23.73;;;281.70;2252.80;;;;;;5033917;28;20080;-78
2023/03/15 03:04:47;;;;;;;47.88;23.83;;;281.60;2252.80;;;;;;5033826;28;20055;-78
2023/03/15 03:07:12;;;;;;;61.90;30.38;;;256.90;2252.80;;;;;;5033983;28;20029;-76
2023/03/15 03:09:38;;;;;;;64.32;31.90;;;281.60;2252.80;;;;;;5033495;28;20068;-80
2023/03/15 03:12:04;;;;;;;53.72;28.27;;;281.60;2252.80;;;;;;5033565;28;20498;-79
2023/03/15 03:14:30;;;;;;;38.97;21.83;;;281.60;2252.80;;;;;;5035177;28;20033;-77
2023/03/15 03:16:56;;;;;;;27.75;15.18;;;281.70;2252.80;;;;;;5033602;28;20021;-77
2023/03/15 03:19:24;;;;;;;24.33;14.75;;;256.90;2201.60;;;;;;5033519;28;20033;-76
2023/03/15 03:21:52;;;;;;;34.38;18.02;;;256.90;2201.60;;;;;;5033641;28;20037;-77
2023/03/15 03:24:18;;;;;;;47.53;23.52;;;281.60;2252.80;;;;;;5033614;28;20055;-78
2023/03/15 03:26:46;;;;;;;33.22;19.02;;;256.90;2227.20;;;;;;5033438;28;20037;-76
2023/03/15 03:29:15;;;;;;;36.45;18.00;;;256.90;2252.80;;;;;;5034729;28;20021;-76
2023/03/15 03:31:42;;;;;;;28.52;15.93;;;281.60;2252.80;;;;;;5034488;28;20024;-76
2023/03/15 03:34:09;;;;;;;24.77;13.45;;;256.70;2252.80;;;;;;5033363;28;20033;-78
2023/03/15 03:36:35;;;;;;;25.95;15.30;;;256.80;2252.80;;;;;;5034808;28;20415;-79
2023/03/15 03:39:01;;;;;;;27.67;14.40;;;256.80;2252.80;;;;;;5034652;28;20029;-77
2023/03/15 03:41:27;;;;;;;21.80;12.95;;;256.80;2252.80;;;;;;5033236;28;20080;-77
2023/03/15 03:43:53;;;;;;;22.42;13.63;;;256.70;2252.80;;;;;;5033163;28;20025;-77
2023/03/15 03:46:18;;;;;;;24.70;14.05;;;256.60;2252.80;;;;;;5032957;28;20428;-77
2023/03/15 03:48:44;;;;;;;26.10;16.00;;;256.60;2252.80;;;;;;5033254;28;20453;-77
2023/03/15 03:51:10;;;;;;;29.38;15.48;;;256.60;2252.80;;;;;;5034581;28;20057;-79
2023/03/15 03:53:36;;;;;;;27.95;14.93;;;256.60;2252.80;;;;;;5032904;28;20132;-78
2023/03/15 03:56:04;;;;;;;24.80;15.30;;;256.40;2252.80;;;;;;5033119;28;20491;-78
2023/03/15 03:58:30;;;;;;;29.45;16.58;;;256.50;2252.80;;;;;;5032948;28;20396;-79
2023/03/15 04:00:56;;;;;;;30.00;17.75;;;256.60;2252.80;;;;;;5032808;28;20117;-79
2023/03/15 04:03:25;;;;;;;27.48;15.60;;;256.50;2252.80;;;;;;5032893;28;20464;-78
2023/03/15 04:05:52;;;;;;;26.00;15.55;;;256.10;2252.80;;;;;;5031919;28;20460;-76
2023/03/15 04:08:19;;;;;;;22.20;16.95;;;256.10;2252.80;;;;;;5032763;28;20036;-80
2023/03/15 04:10:44;;;;;;;23.58;14.50;;;256.10;2252.80;;;;;;5032453;28;20045;-80
2023/03/15 04:13:10;;;;;;;29.98;19.42;;;256.20;2252.80;;;;;;5032731;28;20072;-78
2023/03/15 04:15:36;;;;;;;27.75;18.55;;;256.20;2252.80;;;;;;5032725;28;20385;-78
2023/03/15 04:18:04;;;;;;;35.40;23.13;;;256.20;2252.80;;;;;;5032652;28;20029;-78
2023/03/15 04:20:33;;;;;;;36.65;24.35;;;256.30;2252.80;;;;;;5032719;28;20025;-78
2023/03/15 04:23:00;;;;;;;32.97;20.50;;;256.30;2252.80;;;;;;5033494;28;20469;-78
2023/03/15 04:25:26;;;;;;;35.75;23.60;;;256.10;2252.80;;;;;;5032671;28;20126;-78
2023/03/15 04:28:01;;;;;;;57.28;34.47;;;231.30;2252.80;;;;;;5032319;28;20477;-76
2023/03/15 04:30:28;;;;;;;44.33;28.05;;;231.30;2252.80;;;;;;5032219;28;20117;-77
2023/03/15 04:32:58;;;;;;;44.85;28.67;;;231.20;2252.80;;;;;;5032368;28;20029;-78
2023/03/15 04:35:25;;;;;;;46.10;29.10;;;231.20;2252.80;;;;;;5032265;28;20033;-76
2023/03/15 04:37:51;;;;;;;44.47;28.67;;;231.30;2252.80;;;;;;5032549;28;20061;-78
2023/03/15 04:40:17;;;;;;;48.03;28.83;;;256.00;2252.80;;;;;;5033654;28;20126;-78
2023/03/15 04:42:43;;;;;;;56.90;31.38;;;231.30;2252.80;;;;;;5032207;28;20453;-77
2023/03/15 04:45:09;;;;;;;46.90;28.35;;;231.30;2252.80;;;;;;5033394;28;20389;-79
2023/03/15 04:47:35;;;;;;;44.00;27.77;;;231.20;2252.80;;;;;;5032256;28;20080;-76
2023/03/15 04:50:01;;;;;;;54.38;32.47;;;;;;;;;;5031045;28;20034;-79
2023/03/15 04:52:28;;;;;;;72.30;39.72;;;;;;;;;;5047852;28;20116;-81
2023/03/15 04:54:54;;;;;;;58.10;37.20;;;;;;;;;;5047876;28;20465;-78
2023/03/15 04:57:20;;;;;;;57.90;34.55;;;;;;;;;;5048723;28;20068;-80
2023/03/15 04:59:46;;;;;;;51.42;34.45;;;;;;;;;;5032348;28;20057;-77
2023/03/15 05:02:12;;;;;;;63.55;41.45;;;;;;;;;;5064986;28;20385;-79
2023/03/15 05:04:37;;;;;;;50.53;31.63;;;230.90;2252.80;;;;;;5032848;28;20061;-79
2023/03/15 05:07:03;;;;;;;49.60;29.17;;;230.80;2252.80;;;;;;5065485;28;20423;-77
2023/03/15 05:09:36;;;;;;;51.05;30.10;;;230.80;2252.80;;;;;;5032003;28;20085;-78
2023/03/15 05:12:03;;;;;;;61.85;37.00;;;230.50;2252.80;;;;;;5065270;28;20151;-78
2023/03/15 05:14:29;;;;;;;84.28;46.67;;;230.70;2252.80;;;;;;5065636;28;20026;-77
2023/03/15 05:16:57;;;;;;;93.18;45.30;;;230.70;2252.80;;;;;;5072885;28;20363;-77
2023/03/15 05:19:23;;;;;;;76.75;44.90;;;230.90;2252.80;;;;;;5051525;28;20025;-76
2023/03/15 05:21:49;;;;;;;73.75;43.05;;;230.70;2252.80;;;;;;5050885;28;20053;-77
2023/03/15 05:24:14;;;;;;;74.75;45.03;;;230.80;2252.80;;;;;;5078055;28;20033;-79
2023/03/15 05:26:40;;;;;;;75.97;46.55;;;230.80;2252.80;;;;;;5036255;28;20025;-78
2023/03/15 05:29:06;;;;;;;92.53;51.53;;;230.90;2252.80;;;;;;5035715;28;20033;-79
2023/03/15 05:31:35;;;;;;;67.55;40.17;;;230.90;2252.80;;;;;;5068949;28;20128;-78
2023/03/15 05:34:03;;;;;;;53.05;31.13;;;230.90;2252.80;;;;;;5069016;28;20042;-79
2023/03/15 05:36:29;;;;;;;43.95;28.38;;;230.90;2252.80;;;;;;5069092;28;20026;-81
2023/03/15 05:38:56;;;;;;;60.95;35.42;;;231.10;2252.80;;;;;;5036075;28;20021;-78
2023/03/15 05:41:22;;;;;;;83.97;53.20;;;231.10;2252.80;;;;;;5036773;28;20029;-80
2023/03/15 05:43:49;;;;;;;52.90;37.25;;;231.20;2252.80;;;;;;5068829;28;20025;-78
2023/03/15 05:46:15;;;;;;;54.22;38.70;;;231.10;2252.80;;;;;;5036762;28;20028;-81
2023/03/15 05:48:40;;;;;;;48.63;35.53;;;231.20;2252.80;;;;;;5035472;28;20030;-79
2023/03/15 05:51:06;;;;;;;58.53;37.42;;;231.30;2252.80;;;;;;5036754;28;20076;-79
2023/03/15 05:53:32;;;;;;;55.13;35.75;;;231.30;2252.80;;;;;;5036010;28;20028;-78
2023/03/15 05:55:58;;;;;;;55.25;36.90;;;256.00;2252.80;;;;;;5068479;28;20487;-80
2023/03/15 05:58:24;;;;;;;63.75;41.63;;;256.10;2252.80;;;;;;5067459;28;20080;-79
2023/03/15 06:00:49;;;;;;;94.78;52.42;;;256.10;2252.80;;;;;;5067829;28;20385;-78
2023/03/15 06:03:15;;;;;;;79.28;44.65;;;231.30;2252.80;;;;;;5067443;28;20128;-77
2023/03/15 06:05:41;;;;;;;59.53;36.90;;;231.00;2252.80;;;;;;5068481;28;20025;-80
2023/03/15 06:08:08;;;;;;;56.10;31.77;;;230.90;2252.80;;;;;;5068171;28;20032;-79
2023/03/15 06:10:33;;;;;;;61.97;38.05;;;231.00;2252.80;;;;;;5068217;28;20049;-78
2023/03/15 06:12:59;;;;;;;114.22;67.68;;;231.00;2252.80;;;;;;5036187;28;20052;-82
2023/03/15 06:15:25;;;;;;;93.38;58.25;;;231.20;2252.80;;;;;;5068600;28;20393;-79
2023/03/15 06:17:51;;;;;;;98.65;65.50;;;231.20;2252.80;;;;;;5068382;28;20022;-79
2023/03/15 06:20:17;;;;;;;83.45;59.28;;;231.00;2252.80;;;;;;5068253;28;20025;-82
2023/03/15 06:22:43;;;;;;;96.80;66.18;;;231.20;2252.80;;;;;;5068009;28;20026;-79
2023/03/15 06:25:09;;;;;;;118.22;86.65;;;231.30;2252.80;;;;;;5068071;28;20032;-76
2023/03/15 06:27:35;;;;;;;64.38;41.30;;;256.10;2252.80;;;;;;5070813;28;20039;-76
2023/03/15 06:30:02;;;;;;;61.17;34.92;;;256.10;2252.80;;;;;;5053014;28;20040;-77
2023/03/15 06:32:28;;;;;;;52.80;27.70;;;256.10;2252.80;;;;;;5053152;28;20127;-78
2023/03/15 06:34:54;;;;;;;36.45;21.48;;;256.10;2252.80;;;;;;5054314;28;20163;-77
2023/03/15 06:37:20;;;;;;;35.17;21.70;;;256.00;2252.80;;;;;;5054377;28;20029;-78
2023/03/15 06:39:47;;;;;;;42.70;27.17;;;256.10;2252.80;;;;;;5054237;28;20025;-80
2023/03/15 06:42:13;;;;;;;53.58;33.33;;;256.10;2252.80;;;;;;5054281;28;20036;-79
2023/03/15 06:44:40;;;;;;;144.95;87.18;;;256.10;2252.80;;;;;;5054216;28;20021;-80
2023/03/15 06:47:06;;;;;;;82.55;45.78;;;256.10;2252.80;;;;;;5055827;28;20028;-77
2023/03/15 06:49:32;;;;;;;54.88;31.98;;;256.00;2252.80;;;;;;5053994;28;20108;-80
2023/03/15 06:51:58;;;;;;;50.40;29.33;;;256.00;2252.80;;;;;;5055252;28;20032;-78
2023/03/15 06:54:24;;;;;;;61.92;36.70;;;256.10;2252.80;;;;;;5054027;28;20396;-79
2023/03/15 06:56:50;;;;;;;58.08;35.13;;;256.10;2252.80;;;;;;5053977;28;20025;-81
2023/03/15 06:59:16;;;;;;;59.70;31.98;;;256.10;2252.80;;;;;;5055107;28;20518;-81
2023/03/15 07:01:42;;;;;;;59.90;31.20;;;256.20;2252.80;;;;;;5053909;28;20021;-79
2023/03/15 07:04:08;;;;;;;40.72;26.83;;;256.20;2252.80;;;;;;5053953;28;20158;-79
2023/03/15 07:06:34;;;;;;;40.35;26.42;;;256.10;2252.80;;;;;;5053740;28;20082;-79
2023/03/15 07:09:01;;;;;;;44.70;24.90;;;256.20;2252.80;;;;;;5053534;28;20040;-78
2023/03/15 07:11:27;;;;;;;42.15;26.38;;;256.40;2252.80;;;;;;5053697;28;20025;-80
2023/03/15 07:13:52;;;;;;;50.50;31.73;;;256.40;2252.80;;;;;;5053500;28;20044;-75
2023/03/15 07:16:18;;;;;;;43.85;27.05;;;256.50;2252.80;;;;;;5053526;28;20083;-77
2023/03/15 07:18:44;;;;;;;32.22;21.88;;;256.40;2252.80;;;;;;5053569;28;20051;-77
2023/03/15 07:21:10;;;;;;;31.08;16.88;;;256.30;2252.80;;;;;;5053551;28;20064;-78
2023/03/15 07:23:35;;;;;;;34.05;20.45;;;256.30;2252.80;;;;;;5054285;28;20051;-79
2023/03/15 07:26:01;;;;;;;48.28;29.20;;;256.40;2252.80;;;;;;5053464;28;20473;-78
2023/03/15 07:28:28;;;;;;;80.97;42.97;;;256.60;2252.80;;;;;;5053309;28;20469;-78
2023/03/15 07:30:59;;;;;;;111.40;59.10;;;256.70;2252.80;;;;;;5054434;28;20021;-76
2023/03/15 07:33:26;;;;;;;94.70;47.83;;;256.70;2252.80;;;;;;5053237;28;20033;-78
2023/03/15 07:35:52;;;;;;;70.57;38.38;;;256.80;2252.80;;;;;;5052868;28;20029;-75
2023/03/15 07:38:18;;;;;;;82.80;46.25;;;256.90;2252.80;;;;;;5054066;28;20431;-77
2023/03/15 07:40:44;;;;;;;45.47;31.10;;;256.90;2252.80;;;;;;5053803;28;20028;-76
2023/03/15 07:43:10;;;;;;;33.78;24.25;;;256.80;2252.80;;;;;;5041941;28;20030;-76
2023/03/15 07:45:36;;;;;;;39.22;30.45;;;256.80;2252.80;;;;;;5033621;28;20025;-75
2023/03/15 07:48:02;;;;;;;36.13;25.15;;;256.90;2252.80;;;;;;5032991;28;20484;-75
2023/03/15 07:50:27;;;;;;;38.00;25.52;;;256.90;2252.80;;;;;;5066357;28;20022;-74
2023/03/15 07:52:53;;;;;;;37.53;25.25;;;256.90;2252.80;;;;;;5032919;28;20491;-77
2023/03/15 07:55:19;;;;;;;33.72;23.33;;;281.60;2278.40;;;;;;5066050;28;20081;-76
2023/03/15 07:57:45;;;;;;;35.08;25.42;;;281.60;2278.40;;;;;;5065376;28;20083;-76
2023/03/15 08:00:12;;;;;;;40.63;26.90;;;281.60;2278.40;;;;;;5048241;28;20052;-78
2023/03/15 08:02:39;;;;;;;53.70;37.33;;;281.70;2278.40;;;;;;5048518;28;20470;-76
2023/03/15 08:05:05;;;;;;;76.63;49.92;;;281.70;2278.40;;;;;;5049165;28;20022;-77
2023/03/15 08:07:31;;;;;;;52.78;38.13;;;281.80;2278.40;;;;;;5049610;28;20116;-75
2023/03/15 08:09:57;;;;;;;43.80;28.60;;;281.80;2278.40;;;;;;5048819;28;20144;-75
2023/03/15 08:12:24;;;;;;;34.85;22.63;;;281.90;2278.40;;;;;;5049215;28;20075;-75
2023/03/15 08:14:50;;;;;;;30.25;20.65;;;282.00;2278.40;;;;;;5049670;28;20366;-77
2023/03/15 08:17:16;;;;;;;46.75;29.58;;;281.90;2278.40;;;;;;5049374;28;20025;-78
2023/03/15 08:19:43;;;;;;;55.08;30.52;;;281.80;2278.40;;;;;;5032372;28;20477;-76
2023/03/15 08:22:09;;;;;;;69.22;31.50;;;281.80;2278.40;;;;;;5049291;28;20040;-75
2023/03/15 08:24:35;;;;;;;76.93;33.63;;;281.80;2278.40;;;;;;5033742;28;20442;-77
2023/03/15 08:27:02;;;;;;;75.88;34.30;;;281.80;2278.40;;;;;;5049182;28;20059;-76
2023/03/15 08:29:28;;;;;;;81.25;36.47;;;281.90;2278.40;;;;;;5033555;28;20386;-77
2023/03/15 08:31:54;;;;;;;49.30;26.27;;;281.90;2278.40;;;;;;5048720;28;20056;-77
2023/03/15 08:34:20;;;;;;;44.20;22.60;;;281.90;2278.40;;;;;;5048776;28;20111;-75
2023/03/15 08:36:47;;;;;;;34.08;17.98;;;281.90;2278.40;;;;;;5048941;28;20029;-76
2023/03/15 08:39:13;;;;;;;21.15;13.77;;;281.80;2278.40;;;;;;5032328;28;20036;-76
2023/03/15 08:41:39;;;;;;;24.17;17.13;;;281.90;2278.40;;;;;;5048883;28;20025;-77
2023/03/15 08:44:05;;;;;;;28.02;19.10;;;281.90;2278.40;;;;;;5048800;28;20029;-75
2023/03/15 08:46:32;;;;;;;26.95;16.70;;;281.90;2278.40;;;;;;5048900;28;20084;-76
2023/03/15 08:48:58;;;;;;;18.83;11.65;;;281.90;2278.40;;;;;;5048716;28;20030;-75
2023/03/15 08:51:25;;;;;;;32.38;20.02;;;281.70;2278.40;;;;;;5049166;28;20433;-74
2023/03/15 08:53:51;;;;;;;31.23;19.85;;;281.80;2278.40;;;;;;5052922;28;20029;-74
2023/03/15 08:56:18;;;;;;;26.20;18.67;;;281.70;2278.40;;;;;;5052827;28;20446;-76
2023/03/15 08:58:44;;;;;;;26.30;17.45;;;281.80;2278.40;;;;;;5052836;28;20465;-76
2023/03/15 09:01:14;;;;;;;25.55;17.85;;;281.80;2278.40;;;;;;5052673;28;20029;-76
2023/03/15 09:03:44;;;;;;;28.60;18.75;;;281.80;2278.40;;;;;;5053048;28;20033;-75
2023/03/15 09:06:09;;;;;;;33.33;22.70;;;281.70;2278.40;;;;;;5037351;28;20025;-73
2023/03/15 09:08:35;;;;;;;31.90;21.27;;;281.80;2278.40;;;;;;5037262;28;20393;-77
2023/03/15 09:11:02;;;;;;;29.15;20.63;;;281.70;2278.40;;;;;;5050137;28;20139;-74
2023/03/15 09:13:29;;;;;;;26.60;20.85;;;281.80;2278.40;;;;;;5062462;28;20029;-76
2023/03/15 09:15:56;;;;;;;33.30;22.73;;;281.80;2278.40;;;;;;5065926;28;20052;-76
2023/03/15 09:18:23;;;;;;;30.95;21.92;;;281.60;2278.40;;;;;;5068580;28;20056;-75
2023/03/15 09:20:48;;;;;;;46.20;32.28;;;281.70;2278.40;;;;;;5058798;28;20032;-74
2023/03/15 09:23:14;;;;;;;58.53;37.88;;;281.70;2278.40;;;;;;5071468;28;20025;-76
2023/03/15 09:25:41;;;;;;;94.70;57.35;;;281.70;2278.40;;;;;;5063875;28;20043;-75
2023/03/15 09:28:08;;;;;;;92.85;60.33;;;281.70;2278.40;;;;;;5064068;28;20040;-75
2023/03/15 09:30:35;;;;;;;57.38;36.38;;;281.70;2278.40;;;;;;5069948;28;20392;-77
2023/03/15 09:33:01;;;;;;;37.08;24.27;;;281.70;2278.40;;;;;;5058189;28;20032;-79
2023/03/15 09:35:27;;;;;;;29.65;18.40;;;281.70;2278.40;;;;;;5069745;28;20031;-79
2023/03/15 09:37:53;;;;;;;28.45;19.35;;;281.60;2278.40;;;;;;5064170;28;20020;-77
2023/03/15 09:40:24;;;;;;;32.40;21.73;;;256.90;2252.80;;;;;;5058259;28;20032;-77
2023/03/15 09:43:09;;;;;;;28.83;18.40;;;256.90;2252.80;;;;;;5071394;28;20032;-79
2023/03/15 09:46:00;;;;;;;30.48;19.88;;;281.60;2278.40;;;;;;5061677;28;20105;-75
2023/03/15 09:48:36;;;;;;;38.28;27.27;;;281.60;2278.40;;;;;;5062394;28;20036;-76
2023/03/15 09:51:13;;;;;;;40.80;27.90;;;256.90;2252.80;;;;;;5072555;28;20078;-77
2023/03/15 09:53:49;;;;;;;45.08;29.80;;;281.80;2278.40;;;;;;5063334;28;20032;-77
2023/03/15 09:56:38;;;;;;;82.97;54.72;;;256.80;2252.80;;;;;;5062715;28;20037;-75
2023/03/15 09:59:05;;;;;;;67.25;45.63;;;256.90;2252.80;;;;;;5071144;28;20373;-78
2023/03/15 10:01:36;;;;;;;38.47;26.88;;;281.60;2278.40;;;;;;5060719;28;20056;-76
2023/03/15 10:04:12;;;;;;;51.45;31.55;;;256.90;2252.80;;;;;;5065367;28;20086;-77
2023/03/15 10:06:44;;;;;;;45.65;32.25;;;256.90;2252.80;;;;;;5070043;28;20036;-76
2023/03/15 10:09:15;;;;;;;40.03;31.02;;;256.90;2252.80;;;;;;5057818;28;20059;-77
2023/03/15 10:12:00;;;;;;;40.83;29.95;;;256.80;2252.80;;;;;;5067993;28;20060;-75
2023/03/15 10:15:00;;;;;;;51.78;33.35;;;256.80;2252.80;;;;;;5069630;28;20055;-78
2023/03/15 10:18:03;;;;;;;25.35;18.50;;;256.90;2252.80;;;;;;5045285;28;20036;-76
2023/03/15 10:20:35;;;;;;;21.80;15.10;;;256.90;2252.80;;;;;;5044926;28;20041;-77
2023/03/15 10:23:29;;;;;;;14.07;9.60;;;256.90;2252.80;;;;;;5072152;28;20523;-77
2023/03/15 10:25:56;;;;;;;31.00;19.15;;;256.80;2252.80;;;;;;5064319;28;20480;-76
2023/03/15 10:28:28;;;;;;;50.90;30.42;;;256.90;2252.80;;;;;;5061249;28;20024;-76
2023/03/15 10:30:58;;;;;;;43.53;29.80;;;256.90;2252.80;;;;;;5070653;28;20025;-76
2023/03/15 10:33:24;;;;;;;61.88;39.20;;;256.90;2252.80;;;;;;5059066;28;20028;-76
2023/03/15 10:35:50;;;;;;;38.55;24.33;;;281.60;2278.40;;;;;;5065396;28;20492;-77
2023/03/15 10:38:18;;;;;;;43.50;29.08;;;281.80;2278.40;;;;;;5066378;28;20446;-77
2023/03/15 10:40:55;;;;;;;75.45;46.58;;;281.80;2278.40;;;;;;5057790;28;20024;-75
2023/03/15 10:43:26;;;;;;;67.93;43.78;;;281.80;2278.40;;;;;;5043420;28;20033;-75
2023/03/15 10:45:58;;;;;;;51.00;31.77;;;281.90;2278.40;;;;;;5066226;28;20052;-75
2023/03/15 10:48:24;;;;;;;;;;;281.90;2278.40;;;;;;5054284;28;20376;-77
2023/03/15 10:50:50;;;;;;;43.67;29.65;;;281.90;2278.40;;;;;;5053971;28;19909;-76
2023/03/15 10:53:24;;;;;;;24.80;17.42;;;281.90;2278.40;;;;;;5069371;28;20029;-77
2023/03/15 10:56:05;;;;;;;27.58;18.80;;;281.90;2278.40;;;;;;5055462;28;20036;-77
2023/03/15 10:58:45;;;;;;;17.00;12.50;;;282.00;2278.40;;;;;;5053174;28;20029;-78
2023/03/15 11:01:23;;;;;;;23.17;14.85;;;281.90;2278.40;;;;;;5070892;28;20096;-77
2023/03/15 11:04:13;;;;;;;34.30;19.50;;;281.90;2278.40;;;;;;5062007;28;20029;-74
2023/03/15 11:07:02;;;;;;;29.30;16.38;;;281.90;2278.40;;;;;;5058311;28;20420;-75
2023/03/15 11:09:38;;;;;;;23.15;15.05;;;281.80;2278.40;;;;;;5045856;28;20052;-75
2023/03/15 11:12:06;;;;;;;19.52;13.65;;;281.90;2278.40;;;;;;5062696;28;20040;-78
2023/03/15 11:14:42;;;;;;;20.73;14.48;;;281.80;2278.40;;;;;;5067186;28;20032;-77
2023/03/15 11:17:16;;;;;;;28.85;18.95;;;281.80;2278.40;;;;;;5056783;28;20055;-76
2023/03/15 11:19:54;;;;;;;48.95;33.75;;;281.80;2278.40;;;;;;5065503;28;20032;-77
2023/03/15 11:22:21;;;;;;;38.67;22.25;;;281.70;2278.40;;;;;;5066083;28;20032;-76
2023/03/15 11:24:46;;;;;;;46.97;27.33;;;281.70;2278.40;;;;;;5056595;28;20035;-77
2023/03/15 11:27:15;;;;;;;34.42;23.02;;;281.70;2278.40;;;;;;5056674;28;20025;-77
2023/03/15 11:29:45;;;;;;;31.23;21.15;;;281.70;2278.40;;;;;;5066805;28;20456;-75
2023/03/15 11:32:21;;;;;;;40.70;22.70;;;281.70;2278.40;;;;;;5064338;28;20043;-77
2023/03/15 11:35:09;;;;;;;30.88;19.02;;;281.70;2278.40;;;;;;5056558;28;20032;-78
2023/03/15 11:37:41;;;;;;;25.25;14.85;;;281.60;2278.40;;;;;;5032867;28;20513;-78
2023/03/15 11:40:22;;;;;;;24.27;13.93;;;281.60;2278.40;;;;;;5054425;28;20035;-76
2023/03/15 11:42:56;;;;;;;35.97;20.65;;;281.60;2278.40;;;;;;5056065;28;20432;-74
2023/03/15 11:45:33;;;;;;;31.73;18.63;;;256.90;2252.80;;;;;;5072836;28;20048;-75
2023/03/15 11:48:31;;;;;;;25.58;15.75;;;256.90;2252.80;;;;;;5062502;28;20029;-75
2023/03/15 11:50:58;;;;;;;24.73;15.27;;;281.60;2278.40;;;;;;5043049;28;20040;-75
2023/03/15 11:53:31;;;;;;;27.17;17.67;;;281.60;2278.40;;;;;;5052494;28;20029;-74
2023/03/15 11:56:19;;;;;;;20.27;13.85;;;281.60;2278.40;;;;;;5053385;28;20025;-75
2023/03/15 11:59:03;;;;;;;76.63;42.40;;;281.60;2278.40;;;;;;5039271;28;20025;-75
2023/03/15 12:01:28;;;;;;;33.97;20.83;;;256.90;2252.80;;;;;;5047363;28;20488;-74
2023/03/15 12:04:33;;;;;;;30.00;20.42;;;256.90;2252.80;;;;;;5060845;28;20021;-77
2023/03/15 12:07:18;;;;;;;25.90;17.15;;;256.90;2252.80;;;;;;5044481;28;20037;-77
2023/03/15 12:10:03;;;;;;;18.58;13.63;;;256.90;2252.80;;;;;;5065791;28;20377;-77
2023/03/15 12:12:28;;;;;;;14.88;10.90;;;256.90;2252.80;;;;;;5066083;28;20034;-77
2023/03/15 12:15:23;;;;;;;19.13;12.52;;;256.70;2252.80;;;;;;5055626;28;20029;-75
2023/03/15 12:17:50;;;;;;;25.48;17.55;;;256.80;2252.80;;;;;;5049688;28;20033;-75
2023/03/15 12:20:19;;;;;;;50.97;33.92;;;256.80;2252.80;;;;;;5065667;28;20024;-75
2023/03/15 12:23:08;;;;;;;50.78;33.42;;;256.90;2252.80;;;;;;5055706;28;20119;-78
2023/03/15 12:25:37;;;;;;;42.25;27.63;;;256.90;2252.80;;;;;;5037510;28;20463;-76